createdAt,value
2018-06-08T00:00:22.052Z,12.70
2018-06-08T00:02:52.079Z,12.60
2018-06-08T00:05:22.146Z,12.70
2018-06-08T00:07:52.199Z,12.60
2018-06-08T00:10:22.224Z,12.60
2018-06-08T00:12:52.264Z,12.50
2018-06-08T00:15:22.312Z,12.40
2018-06-08T00:17:52.328Z,12.30
2018-06-08T00:20:22.383Z,12.20
2018-06-08T00:22:52.417Z,12.20
2018-06-08T00:25:22.428Z,12.20
2018-06-08T00:27:52.496Z,12.20
2018-06-08T00:30:22.532Z,12.20
2018-06-08T00:32:52.577Z,12.10
2018-06-08T00:35:22.589Z,12.10
2018-06-08T00:37:52.567Z,12.10
2018-06-08T00:40:22.628Z,12.10
2018-06-08T00:42:52.695Z,12.00
2018-06-08T00:45:22.784Z,12.00
2018-06-08T00:47:52.772Z,12.00
2018-06-08T00:50:22.804Z,12.00
2018-06-08T00:52:52.896Z,11.90
2018-06-08T00:55:22.924Z,11.90
2018-06-08T00:57:52.976Z,11.90
2018-06-08T01:00:23.049Z,11.90
2018-06-08T01:02:53.135Z,11.80
2018-06-08T01:05:23.188Z,11.80
2018-06-08T01:07:53.204Z,11.70
2018-06-08T01:10:23.272Z,11.70
2018-06-08T01:12:53.242Z,11.60
2018-06-08T01:15:23.420Z,11.60
2018-06-08T01:17:53.448Z,11.60
2018-06-08T01:20:23.453Z,11.60
2018-06-08T01:22:53.484Z,11.50
2018-06-08T01:25:23.556Z,11.50
2018-06-08T01:27:53.640Z,11.50
2018-06-08T01:30:23.704Z,11.40
2018-06-08T01:32:53.756Z,11.40
2018-06-08T01:35:23.837Z,11.30
2018-06-08T01:37:53.888Z,11.30
2018-06-08T01:40:23.945Z,11.30
2018-06-08T01:42:53.932Z,11.30
2018-06-08T01:45:24.037Z,11.20
2018-06-08T01:47:54.072Z,11.20
2018-06-08T01:50:24.100Z,11.20
2018-06-08T01:52:54.177Z,11.20
2018-06-08T01:55:24.176Z,11.20
2018-06-08T01:57:54.241Z,11.20
2018-06-08T02:00:24.271Z,11.20
2018-06-08T02:02:54.291Z,11.20
2018-06-08T02:05:24.303Z,11.20
2018-06-08T02:07:54.394Z,11.10
2018-06-08T02:10:24.468Z,11.00
2018-06-08T02:12:54.581Z,11.00
2018-06-08T02:15:24.584Z,11.00
2018-06-08T02:17:54.677Z,11.00
2018-06-08T02:20:24.660Z,10.90
2018-06-08T02:22:54.713Z,10.90
2018-06-08T02:25:24.768Z,10.90
2018-06-08T02:27:54.771Z,10.90
2018-06-08T02:30:24.783Z,10.90
2018-06-08T02:32:54.799Z,10.90
2018-06-08T02:35:24.864Z,10.90
2018-06-08T02:37:54.865Z,11.00
2018-06-08T02:40:24.988Z,11.00
2018-06-08T02:42:55.022Z,11.00
2018-06-08T02:45:25.080Z,11.00
2018-06-08T02:47:55.116Z,11.00
2018-06-08T02:50:25.172Z,11.10
2018-06-08T02:52:55.280Z,11.10
2018-06-08T02:55:25.336Z,11.10
2018-06-08T02:57:55.396Z,11.10
2018-06-08T03:00:25.372Z,11.10
2018-06-08T03:02:55.457Z,11.10
2018-06-08T03:05:25.557Z,11.10
2018-06-08T03:07:55.688Z,11.20
2018-06-08T03:10:25.771Z,11.20
2018-06-08T03:12:55.949Z,11.20
2018-06-08T03:15:26.016Z,11.20
2018-06-08T03:17:56.084Z,11.30
2018-06-08T03:20:26.185Z,11.30
2018-06-08T03:22:56.295Z,11.40
2018-06-08T03:25:26.502Z,11.50
2018-06-08T03:27:56.528Z,11.60
2018-06-08T03:30:26.656Z,11.70
2018-06-08T03:32:56.696Z,11.80
2018-06-08T03:35:26.760Z,11.80
2018-06-08T03:37:56.904Z,12.00
2018-06-08T03:40:26.978Z,12.00
2018-06-08T03:42:57.027Z,12.10
2018-06-08T03:45:27.116Z,12.20
2018-06-08T03:47:57.194Z,12.30
2018-06-08T03:50:27.604Z,12.40
2018-06-08T03:52:57.729Z,12.50
2018-06-08T03:55:27.838Z,12.50
2018-06-08T03:57:57.939Z,12.60
2018-06-08T04:00:28.012Z,12.70
2018-06-08T04:02:58.084Z,12.80
2018-06-08T04:05:28.180Z,12.90
2018-06-08T04:07:58.226Z,13.00
2018-06-08T04:10:28.307Z,13.10
2018-06-08T04:12:58.421Z,13.10
2018-06-08T04:15:28.598Z,13.20
2018-06-08T04:17:58.720Z,13.20
2018-06-08T04:20:28.918Z,13.30
2018-06-08T04:22:58.984Z,13.40
2018-06-08T04:25:29.098Z,13.40
2018-06-08T04:27:59.196Z,13.50
2018-06-08T04:30:29.251Z,13.50
2018-06-08T04:32:59.352Z,13.60
2018-06-08T04:35:29.437Z,13.60
2018-06-08T04:37:59.456Z,13.70
2018-06-08T04:40:29.556Z,13.80
2018-06-08T04:42:59.737Z,13.90
2018-06-08T04:45:29.868Z,13.90
2018-06-08T04:47:59.944Z,14.00
2018-06-08T04:50:30.868Z,14.10
2018-06-08T04:53:01.341Z,14.20
2018-06-08T04:55:31.521Z,14.20
2018-06-08T04:58:01.603Z,14.30
2018-06-08T05:00:31.693Z,14.30
2018-06-08T05:03:01.737Z,14.40
2018-06-08T05:05:31.836Z,14.50
2018-06-08T05:08:01.900Z,14.50
2018-06-08T05:10:32.044Z,14.60
2018-06-08T05:13:02.152Z,14.70
2018-06-08T05:15:32.241Z,14.70
2018-06-08T05:18:02.283Z,14.70
2018-06-08T05:20:32.351Z,14.80
2018-06-08T05:23:02.383Z,14.80
2018-06-08T05:25:32.440Z,14.90
2018-06-08T05:28:02.480Z,15.00
2018-06-08T05:30:32.552Z,15.00
2018-06-08T05:33:02.614Z,15.10
2018-06-08T05:35:32.719Z,15.20
2018-06-08T05:38:02.809Z,15.30
2018-06-08T05:40:32.868Z,15.30
2018-06-08T05:43:02.928Z,15.40
2018-06-08T05:45:33.046Z,15.50
2018-06-08T05:48:03.113Z,15.60
2018-06-08T05:50:33.189Z,15.70
2018-06-08T05:53:03.316Z,15.90
2018-06-08T05:55:33.331Z,16.00
2018-06-08T05:58:03.452Z,16.00
2018-06-08T06:00:33.832Z,16.10
2018-06-08T06:03:03.952Z,16.20
2018-06-08T06:05:34.095Z,16.40
2018-06-08T06:08:04.317Z,16.50
2018-06-08T06:10:34.388Z,16.50
2018-06-08T06:13:04.517Z,16.80
2018-06-08T06:15:34.596Z,16.80
2018-06-08T06:18:04.732Z,16.90
2018-06-08T06:20:34.804Z,17.00
2018-06-08T06:23:04.876Z,17.10
2018-06-08T06:25:34.916Z,17.10
2018-06-08T06:28:05.008Z,17.10
2018-06-08T06:30:35.124Z,17.30
2018-06-08T06:33:05.240Z,17.40
2018-06-08T06:35:35.278Z,17.40
2018-06-08T06:38:05.436Z,17.50
2018-06-08T06:40:36.032Z,17.60
2018-06-08T06:43:06.224Z,17.70
2018-06-08T06:45:36.299Z,17.90
2018-06-08T06:48:06.441Z,17.80
2018-06-08T06:50:36.560Z,17.90
2018-06-08T06:53:06.731Z,18.00
2018-06-08T06:55:36.800Z,18.10
2018-06-08T06:58:06.897Z,18.20
2018-06-08T07:00:37.016Z,18.30
2018-06-08T07:03:07.092Z,18.40
2018-06-08T07:05:37.210Z,18.50
2018-06-08T07:08:07.328Z,18.60
2018-06-08T07:10:37.425Z,18.90
2018-06-08T07:13:07.524Z,19.10
2018-06-08T07:15:37.589Z,19.20
2018-06-08T07:18:07.652Z,19.30
2018-06-08T07:20:37.752Z,19.30
2018-06-08T07:23:08.044Z,19.40
2018-06-08T07:25:38.132Z,19.40
2018-06-08T07:28:08.147Z,19.50
2018-06-08T07:30:38.175Z,19.70
2018-06-08T07:33:08.224Z,19.90
2018-06-08T07:35:39.191Z,20.10
2018-06-08T07:38:09.227Z,20.30
2018-06-08T07:40:39.252Z,20.30
2018-06-08T07:43:09.340Z,20.40
2018-06-08T07:45:39.396Z,20.60
2018-06-08T07:48:09.499Z,20.70
2018-06-08T07:50:39.561Z,20.90
2018-06-08T07:53:09.596Z,20.70
2018-06-08T07:55:39.668Z,20.30
2018-06-08T07:58:09.720Z,20.60
2018-06-08T08:00:39.769Z,20.90
2018-06-08T08:03:09.876Z,21.00
2018-06-08T08:05:39.941Z,21.10
2018-06-08T08:08:10.009Z,21.40
2018-06-08T08:10:40.110Z,21.60
2018-06-08T08:13:10.176Z,21.80
2018-06-08T08:15:40.232Z,21.80
2018-06-08T08:18:10.224Z,21.90
2018-06-08T08:20:40.274Z,21.70
2018-06-08T08:23:10.350Z,21.80
2018-06-08T08:25:40.528Z,21.90
2018-06-08T08:28:10.589Z,21.90
2018-06-08T08:30:40.660Z,21.80
2018-06-08T08:33:10.746Z,22.10
2018-06-08T08:35:40.806Z,22.10
2018-06-08T08:38:10.870Z,22.00
2018-06-08T08:40:40.956Z,22.00
2018-06-08T08:43:10.953Z,22.20
2018-06-08T08:45:41.062Z,22.40
2018-06-08T08:48:11.145Z,22.50
2018-06-08T08:50:41.248Z,22.60
2018-06-08T08:53:11.287Z,22.50
2018-06-08T08:55:41.396Z,22.60
2018-06-08T08:58:11.452Z,22.50
2018-06-08T09:00:41.528Z,21.90
2018-06-08T09:03:11.637Z,21.40
2018-06-08T09:05:41.837Z,20.60
2018-06-08T09:08:11.988Z,20.30
2018-06-08T09:10:42.065Z,20.10
2018-06-08T09:13:12.160Z,20.60
2018-06-08T09:15:42.276Z,20.90
2018-06-08T09:18:12.318Z,20.10
2018-06-08T09:20:42.443Z,20.40
2018-06-08T09:23:12.504Z,20.60
2018-06-08T09:25:42.584Z,20.30
2018-06-08T09:28:12.621Z,20.00
2018-06-08T09:30:42.714Z,20.60
2018-06-08T09:33:12.887Z,20.70
2018-06-08T09:35:42.999Z,20.10
2018-06-08T09:38:13.108Z,20.10
2018-06-08T09:40:43.188Z,19.80
2018-06-08T09:43:13.264Z,19.70
2018-06-08T09:45:43.324Z,19.60
2018-06-08T09:48:13.416Z,19.20
2018-06-08T09:50:43.461Z,19.70
2018-06-08T09:53:13.520Z,20.40
2018-06-08T09:55:43.587Z,20.30
2018-06-08T09:58:13.692Z,19.80
2018-06-08T10:00:43.890Z,19.70
2018-06-08T10:03:13.940Z,19.30
2018-06-08T10:05:44.000Z,19.90
2018-06-08T10:08:14.071Z,19.70
2018-06-08T10:10:44.143Z,20.30
2018-06-08T10:13:14.207Z,20.90
2018-06-08T10:15:44.252Z,21.30
2018-06-08T10:18:14.371Z,21.30
2018-06-08T10:20:44.468Z,21.30
2018-06-08T10:23:14.514Z,20.70
2018-06-08T10:25:44.671Z,19.70
2018-06-08T10:28:14.722Z,19.10
2018-06-08T10:30:44.786Z,19.40
2018-06-08T10:33:14.888Z,19.00
2018-06-08T10:35:44.948Z,19.10
2018-06-08T10:38:14.988Z,18.90
2018-06-08T10:40:45.133Z,18.90
2018-06-08T10:43:15.092Z,18.90
2018-06-08T10:45:45.432Z,18.70
2018-06-08T10:48:15.503Z,18.80
2018-06-08T10:50:45.576Z,18.90
2018-06-08T10:53:15.632Z,19.00
2018-06-08T10:55:45.703Z,18.80
2018-06-08T10:58:15.813Z,19.00
2018-06-08T11:00:45.902Z,19.10
2018-06-08T11:03:16.041Z,19.10
2018-06-08T11:05:46.073Z,19.50
2018-06-08T11:08:16.164Z,20.10
2018-06-08T11:10:46.298Z,20.00
2018-06-08T11:13:16.482Z,19.80
2018-06-08T11:15:46.609Z,20.30
2018-06-08T11:18:16.681Z,20.40
2018-06-08T11:20:46.720Z,21.00
2018-06-08T11:23:17.051Z,21.20
2018-06-08T11:25:47.099Z,21.50
2018-06-08T11:28:17.163Z,21.40
2018-06-08T11:30:47.315Z,21.20
2018-06-08T11:33:17.476Z,21.00
2018-06-08T11:35:47.580Z,20.60
2018-06-08T11:38:17.742Z,20.50
2018-06-08T11:40:47.967Z,20.30
2018-06-08T11:43:18.064Z,20.10
2018-06-08T11:45:48.218Z,20.30
2018-06-08T11:48:18.320Z,19.90
2018-06-08T11:50:48.429Z,19.90
2018-06-08T11:53:18.608Z,19.60
2018-06-08T11:55:48.716Z,19.00
2018-06-08T11:58:18.822Z,18.50
2018-06-08T12:00:48.942Z,18.80
2018-06-08T12:03:19.074Z,18.40
2018-06-08T12:05:49.200Z,17.90
2018-06-08T12:08:19.329Z,17.70
2018-06-08T12:10:49.433Z,17.70
2018-06-08T12:13:19.532Z,18.00
2018-06-08T12:15:49.900Z,18.30
2018-06-08T12:18:20.033Z,18.70
2018-06-08T12:20:50.222Z,19.00
2018-06-08T12:23:20.323Z,18.90
2018-06-08T12:25:50.458Z,18.50
2018-06-08T12:28:20.632Z,18.60
2018-06-08T12:30:51.033Z,18.50
2018-06-08T12:33:21.080Z,18.20
2018-06-08T12:35:51.215Z,17.90
2018-06-08T12:38:21.284Z,17.70
2018-06-08T12:40:51.378Z,17.70
2018-06-08T12:43:21.428Z,17.70
2018-06-08T12:45:51.428Z,17.80
2018-06-08T12:48:21.535Z,17.70
2018-06-08T12:50:51.626Z,17.70
2018-06-08T12:53:21.705Z,17.70
2018-06-08T12:55:51.824Z,17.40
2018-06-08T12:58:21.900Z,16.80
2018-06-08T13:00:52.244Z,17.30
2018-06-08T13:03:22.481Z,17.40
2018-06-08T13:05:52.565Z,17.40
2018-06-08T13:08:22.928Z,17.40
2018-06-08T13:10:53.028Z,17.40
2018-06-08T13:13:23.144Z,17.20
2018-06-08T13:15:53.236Z,17.20
2018-06-08T13:18:23.314Z,17.10
2018-06-08T13:20:53.391Z,16.90
2018-06-08T13:23:23.494Z,16.80
2018-06-08T13:25:53.520Z,16.70
2018-06-08T13:28:23.660Z,17.20
2018-06-08T13:30:53.716Z,17.20
2018-06-08T13:33:23.864Z,17.70
2018-06-08T13:38:23.404Z,18.10
2018-06-08T13:40:53.496Z,17.70
2018-06-08T13:43:23.620Z,17.50
2018-06-08T13:45:53.754Z,17.60
2018-06-08T13:48:24.148Z,17.90
2018-06-08T13:50:54.280Z,17.70
2018-06-08T13:53:24.520Z,17.90
2018-06-08T13:55:54.704Z,18.30
2018-06-08T13:58:24.856Z,18.40
2018-06-08T14:00:54.901Z,18.10
2018-06-08T14:03:25.108Z,17.70
2018-06-08T14:05:55.140Z,17.60
2018-06-08T14:08:25.452Z,17.40
2018-06-08T14:10:55.582Z,17.40
2018-06-08T14:13:25.632Z,17.30
2018-06-08T14:15:55.712Z,17.10
2018-06-08T14:18:25.822Z,17.00
2018-06-08T14:20:55.897Z,17.00
2018-06-08T14:23:25.952Z,17.40
2018-06-08T14:25:56.159Z,16.90
2018-06-08T14:28:26.644Z,16.70
2018-06-08T14:30:56.912Z,16.70
2018-06-08T14:35:56.593Z,16.50
2018-06-08T14:38:26.672Z,16.40
2018-06-08T14:40:56.919Z,16.60
2018-06-08T14:43:27.140Z,16.60
2018-06-08T14:45:57.236Z,16.40
2018-06-08T14:48:27.297Z,16.40
2018-06-08T14:50:57.509Z,16.60
2018-06-08T14:53:27.616Z,16.70
2018-06-08T14:55:57.876Z,16.90
2018-06-08T14:58:27.996Z,17.10
2018-06-08T15:00:58.072Z,17.30
2018-06-08T15:03:28.236Z,17.40
2018-06-08T15:05:58.303Z,17.60
2018-06-08T15:08:28.703Z,17.60
2018-06-08T15:10:58.772Z,17.70
2018-06-08T15:13:28.979Z,17.80
2018-06-08T15:15:59.068Z,17.60
2018-06-08T15:18:29.121Z,17.70
2018-06-08T15:20:59.408Z,17.70
2018-06-08T15:23:29.524Z,17.90
2018-06-08T15:25:59.581Z,18.10
2018-06-08T15:28:29.660Z,18.10
2018-06-08T15:30:59.700Z,18.10
2018-06-08T15:33:29.995Z,18.20
2018-06-08T15:36:00.093Z,18.10
2018-06-08T15:38:30.167Z,18.10
2018-06-08T15:41:00.364Z,18.10
2018-06-08T15:43:30.408Z,18.10
2018-06-08T15:46:00.473Z,18.10
2018-06-08T15:48:30.462Z,18.20
2018-06-08T15:51:00.512Z,18.10
2018-06-08T15:53:31.011Z,17.80
2018-06-08T15:56:01.080Z,17.80
2018-06-08T15:58:31.084Z,17.90
2018-06-08T16:01:01.289Z,17.90
2018-06-08T16:03:31.513Z,17.80
2018-06-08T16:06:01.568Z,17.80
2018-06-08T16:08:31.685Z,17.80
2018-06-08T16:11:01.772Z,17.40
2018-06-08T16:13:31.803Z,17.00
2018-06-08T16:16:01.854Z,16.40
2018-06-08T16:18:32.155Z,16.20
2018-06-08T16:23:31.680Z,15.90
2018-06-08T16:26:01.866Z,15.90
2018-06-08T16:28:32.016Z,16.10
2018-06-08T16:31:02.268Z,16.10
2018-06-08T16:33:32.584Z,16.10
2018-06-08T16:36:02.610Z,15.80
2018-06-08T16:38:32.697Z,15.90
2018-06-08T16:41:02.752Z,15.90
2018-06-08T16:43:32.768Z,16.00
2018-06-08T16:46:03.072Z,16.00
2018-06-08T16:48:33.062Z,16.00
2018-06-08T16:51:03.052Z,16.00
2018-06-08T16:53:33.064Z,15.90
2018-06-08T16:56:03.356Z,15.90
2018-06-08T16:58:33.527Z,15.80
2018-06-08T17:01:03.749Z,15.80
2018-06-08T17:03:33.760Z,15.80
2018-06-08T17:08:33.244Z,15.70
2018-06-08T17:13:32.706Z,15.70
2018-06-08T17:16:03.708Z,15.70
2018-06-08T17:18:33.932Z,15.60
2018-06-08T17:21:04.037Z,15.60
2018-06-08T17:23:34.237Z,15.60
2018-06-08T17:26:04.221Z,15.60
2018-06-08T17:28:34.235Z,15.60
2018-06-08T17:31:04.272Z,15.50
2018-06-08T17:33:34.346Z,15.40
2018-06-08T17:36:04.425Z,15.30
2018-06-08T17:38:34.500Z,15.20
2018-06-08T17:41:04.538Z,15.30
2018-06-08T17:43:34.601Z,15.20
2018-06-08T17:46:05.064Z,15.30
2018-06-08T17:51:04.815Z,15.20
2018-06-08T17:53:34.884Z,15.20
2018-06-08T17:56:04.971Z,15.10
2018-06-08T17:58:35.617Z,15.00
2018-06-08T18:01:05.647Z,15.00
2018-06-08T18:03:35.728Z,14.80
2018-06-08T18:06:05.735Z,14.90
2018-06-08T18:08:35.806Z,14.90
2018-06-08T18:11:05.840Z,14.90
2018-06-08T18:13:35.948Z,14.90
2018-06-08T18:16:06.129Z,14.80
2018-06-08T18:18:36.672Z,14.80
2018-06-08T18:21:07.274Z,14.90
2018-06-08T18:23:37.476Z,14.90
2018-06-08T18:26:07.592Z,14.90
2018-06-08T18:28:37.756Z,14.90
2018-06-08T18:31:07.812Z,14.90
2018-06-08T18:33:37.908Z,14.90
2018-06-08T18:36:07.968Z,14.90
2018-06-08T18:38:38.184Z,14.80
2018-06-08T18:41:08.258Z,14.70
2018-06-08T18:43:38.346Z,14.70
2018-06-08T18:46:08.362Z,14.60
2018-06-08T18:48:38.496Z,14.60
2018-06-08T18:51:08.550Z,14.60
2018-06-08T18:53:38.707Z,14.50
2018-06-08T18:56:08.788Z,14.50
2018-06-08T18:58:39.070Z,14.50
2018-06-08T19:01:09.333Z,14.40
2018-06-08T19:03:39.518Z,14.40
2018-06-08T19:06:09.756Z,14.30
2018-06-08T19:08:39.820Z,14.30
2018-06-08T19:11:09.881Z,14.30
2018-06-08T19:13:39.973Z,14.30
2018-06-08T19:16:10.071Z,14.40
2018-06-08T19:18:40.188Z,14.30
2018-06-08T19:21:10.356Z,14.30
2018-06-08T19:23:40.360Z,14.30
2018-06-08T19:26:10.537Z,14.20
2018-06-08T19:28:40.574Z,14.20
2018-06-08T19:31:10.768Z,14.20
2018-06-08T19:33:41.331Z,14.20
2018-06-08T19:36:11.432Z,14.20
2018-06-08T19:38:41.432Z,14.20
2018-06-08T19:43:40.996Z,14.20
2018-06-08T19:46:11.104Z,14.20
2018-06-08T19:48:41.194Z,14.10
2018-06-08T19:51:11.279Z,14.10
2018-06-08T19:53:41.368Z,14.10
2018-06-08T19:56:11.388Z,14.10
2018-06-08T19:58:42.264Z,14.10
2018-06-08T20:01:15.331Z,14.00
2018-06-08T20:03:46.916Z,14.00
2018-06-08T20:06:17.076Z,14.00
2018-06-08T20:08:47.678Z,14.00
2018-06-08T20:11:17.892Z,14.00
2018-06-08T20:13:48.340Z,14.00
2018-06-08T20:16:19.388Z,13.90
2018-06-08T20:18:49.960Z,13.90
2018-06-08T20:21:19.996Z,13.90
2018-06-08T20:23:50.069Z,13.90
2018-06-08T20:26:20.140Z,13.80
2018-06-08T20:28:50.256Z,13.80
2018-06-08T20:31:20.497Z,13.70
2018-06-08T20:33:50.971Z,13.70
2018-06-08T20:36:21.459Z,13.70
2018-06-08T20:38:51.707Z,13.70
2018-06-08T20:43:51.536Z,13.60
2018-06-08T20:46:21.716Z,13.60
2018-06-08T20:48:51.987Z,13.50
2018-06-08T20:51:22.008Z,13.50
2018-06-08T20:53:52.160Z,13.50
2018-06-08T20:56:22.589Z,13.50
2018-06-08T20:58:52.500Z,13.50
2018-06-08T21:01:22.520Z,13.50
2018-06-08T21:03:52.508Z,13.50
2018-06-08T21:06:22.726Z,13.50
2018-06-08T21:08:52.710Z,13.50
2018-06-08T21:11:22.887Z,13.50
2018-06-08T21:13:52.868Z,13.50
2018-06-08T21:16:22.872Z,13.40
2018-06-08T21:18:52.896Z,13.40
2018-06-08T21:21:23.114Z,13.40
2018-06-08T21:23:53.036Z,13.40
2018-06-08T21:26:23.088Z,13.40
2018-06-08T21:28:53.144Z,13.40
2018-06-08T21:31:23.096Z,13.40
2018-06-08T21:33:53.116Z,13.40
2018-06-08T21:38:52.891Z,13.30
2018-06-08T21:43:52.355Z,13.30
2018-06-08T21:46:22.328Z,13.30
2018-06-08T21:48:52.372Z,13.30
2018-06-08T21:51:22.446Z,13.30
2018-06-08T21:53:52.597Z,13.30
2018-06-08T21:56:22.596Z,13.20
2018-06-08T21:58:52.588Z,13.30
2018-06-08T22:01:22.800Z,13.20
2018-06-08T22:03:52.842Z,13.20
2018-06-08T22:06:22.884Z,13.30
2018-06-08T22:08:52.920Z,13.20
2018-06-08T22:11:23.040Z,13.20
2018-06-08T22:13:53.144Z,13.20
2018-06-08T22:16:23.196Z,13.20
2018-06-08T22:18:53.348Z,13.20
2018-06-08T22:23:53.016Z,13.20
2018-06-08T22:26:23.071Z,13.20
2018-06-08T22:28:53.052Z,13.20
2018-06-08T22:31:23.091Z,13.20
2018-06-08T22:33:53.080Z,13.20
2018-06-08T22:36:23.080Z,13.20
2018-06-08T22:41:22.541Z,13.20
2018-06-08T22:43:52.516Z,13.20
2018-06-08T22:46:22.604Z,13.20
2018-06-08T22:48:52.656Z,13.20
2018-06-08T22:51:22.663Z,13.20
2018-06-08T22:53:52.799Z,13.20
2018-06-08T22:56:22.741Z,13.20
2018-06-08T22:58:52.690Z,13.20
2018-06-08T23:01:22.644Z,13.10
2018-06-08T23:03:52.785Z,13.10
2018-06-08T23:06:22.784Z,13.10
2018-06-08T23:11:22.248Z,13.20
2018-06-08T23:13:52.256Z,13.20
2018-06-08T23:16:22.238Z,13.10
2018-06-08T23:18:52.284Z,13.20
2018-06-08T23:21:22.656Z,13.20
2018-06-08T23:23:52.664Z,13.10
2018-06-08T23:28:52.108Z,13.20
2018-06-08T23:31:22.160Z,13.20
2018-06-08T23:33:52.180Z,13.10
2018-06-08T23:36:22.228Z,13.20
2018-06-08T23:38:52.237Z,13.20
2018-06-08T23:41:22.455Z,13.10
2018-06-08T23:43:52.510Z,13.10
2018-06-08T23:46:22.552Z,13.10
2018-06-08T23:48:52.740Z,13.10
2018-06-08T23:51:22.772Z,13.10
2018-06-08T23:53:52.804Z,13.10
2018-06-08T23:56:22.900Z,13.10
2018-06-08T23:58:52.976Z,13.10
